• Join FlightAware (Why Join?)
  • Login
  • US Flag 
05:37PM EDT


 

Airport Tracker/Info


-or-


 

Live Flight TrackerFlight Track Log ✈ EGF2827 ✈ 17-Apr-2012 ✈ KDFW - KCHS

Flight Track Log - Related Links

Times and Time Zones

All times are in EDT time to prevent confusion due to time zone crossing. See the EGF2827 flight status page for this flight to view local times or setup timezone preferences in your user account.

Time Position Orientation Groundspeed Altitude Reporting Facility
EDT Latitude Longitude Course Direction KTS MPH feet Rate Location/Type
09:45AM 32.8666 -97.0318 359° North  Level FlightAware Approximate
09:45AM 32.9167 -97.0333 13° North 160 184 1,400  Level Dallas / Fort Worth TRACON
09:46AM 32.9631 -97.0206 18° North 201 231 2,800 1,920 Climbing FAA TRACON SMA TRACON (SMA)
09:47AM 32.9972 -97.0069 52° Northeast 210 242 4,500 2,280 Climbing FAA TRACON SMA TRACON (SMA)
09:48AM 33.0203 -96.9717 95° East 224 258 5,900 1,620 Climbing FAA TRACON SMA TRACON (SMA)
09:48AM 33.0169 -96.9214 103° East 250 288 6,800 1,620 Climbing FAA TRACON SMA TRACON (SMA)
09:49AM 33.0050 -96.8594 108° East 284 327 8,100 2,100 Climbing FAA TRACON SMA TRACON (SMA)
09:50AM 32.9881 -96.7958 107° East 294 338 9,600 2,100 Climbing FAA TRACON SMA TRACON (SMA)
09:50AM 32.9728 -96.7378 107° East 298 343 10,900 1,740 Climbing FAA TRACON SMA TRACON (SMA)
09:51AM 32.9556 -96.6694 106° East 315 362 11,900 1,560 Climbing FAA TRACON SMA TRACON (SMA)
09:52AM 32.9378 -96.5978 107° East 330 380 13,000 1,560 Climbing FAA TRACON SMA TRACON (SMA)
09:52AM 32.9206 -96.5319 108° East 336 387 14,000 1,620 Climbing FAA TRACON SMA TRACON (SMA)
09:53AM 32.9008 -96.4586 106° East 339 390 15,200 1,560 Climbing FAA TRACON SMA TRACON (SMA)
09:54AM 32.8825 -96.3825 103° East 348 400 16,100 1,320 Climbing FAA TRACON SMA TRACON (SMA)
09:54AM 32.8689 -96.3128 88° East 353 406 17,000 1,200 Climbing FAA TRACON SMA TRACON (SMA)
09:55AM 32.8714 -96.2314 88° East 356 410 17,800 1,740 Climbing FAA TRACON SMA TRACON (SMA)
09:56AM 32.8733 -96.1508 88° East 352 405 19,300 1,860 Climbing FAA TRACON SMA TRACON (SMA)
09:56AM 32.8756 -96.0797 89° East 349 402 20,300 1,620 Climbing FAA TRACON SMA TRACON (SMA)
09:57AM 32.8772 -96.0000 88° East 350 403 21,500 1,800 Climbing FAA TRACON SMA TRACON (SMA)
09:58AM 32.8794 -95.9208 87° East 347 399 22,700 1,080 Climbing FAA TRACON SMA TRACON (SMA)
09:58AM 32.8819 -95.8572 95° East 357 411 23,000 180 Climbing FAA TRACON SMA TRACON (SMA)
09:59AM 32.8747 -95.7586 87° East 358 412 23,000 480 Level Fort Worth Center
10:00AM 32.8811 -95.6100 89° East 390 449 23,900 960 Climbing Fort Worth Center
10:01AM 32.8833 -95.4764 87° East 405 466 25,000 1,020 Climbing Fort Worth Center
10:02AM 32.8894 -95.3378 84° East 405 466 26,000 1,200 Climbing Fort Worth Center
10:03AM 32.9017 -95.2064 80° East 405 466 27,400 1,380 Climbing Fort Worth Center
10:04AM 32.9222 -95.0722 79° East 405 466 28,800 1,380 Climbing Fort Worth Center
10:05AM 32.9428 -94.9431 79° East 405 466 30,200 1,080 Climbing Fort Worth Center
10:06AM 32.9631 -94.8136 79° East 405 466 31,000 360 Climbing Fort Worth Center
10:07AM 32.9853 -94.6719 80° East 415 478 31,000  Level Fort Worth Center
10:08AM 33.0069 -94.5225 80° East 438 504 31,000  Level Fort Worth Center
10:09AM 33.0283 -94.3758 81° East 445 512 31,000  Level Fort Worth Center
10:10AM 33.0478 -94.2339 79° East 445 512 31,000  Level Fort Worth Center
10:11AM 33.0694 -94.0942 81° East 440 506 31,000  Level Fort Worth Center
10:12AM 33.0883 -93.9497 80° East 440 506 31,000  Level Fort Worth Center
10:13AM 33.1092 -93.8025 80° East 440 506 31,000 120 Level Fort Worth Center
10:14AM 33.1283 -93.6653 80° East 451 519 31,300 360 Climbing Fort Worth Center
10:15AM 33.1508 -93.5156 80° East 451 519 31,800 600 Climbing Fort Worth Center
10:16AM 33.1731 -93.3583 80° East 457 526 32,500 780 Climbing Fort Worth Center
10:17AM 33.1950 -93.2033 81° East 467 537 33,400 900 Climbing Fort Worth Center
10:18AM 33.2167 -93.0461 81° East 472 543 34,300 780 Climbing Fort Worth Center
10:19AM 33.2383 -92.8883 80° East 477 549 35,000 300 Climbing Fort Worth Center
10:20AM 33.2617 -92.7258 84° East 484 557 35,000  Level Fort Worth Center
10:21AM 33.2761 -92.5611 84° East 489 563 35,000  Level Fort Worth Center
10:23AM 33.3075 -92.2117 85° East 483 556 35,000  Level Memphis Center
10:24AM 33.3203 -92.0503 84° East 483 556 35,000  Level Memphis Center
10:25AM 33.3347 -91.8914 83° East 483 556 35,000  Level Memphis Center
10:26AM 33.3511 -91.7300 85° East 483 556 35,000  Level Memphis Center
10:27AM 33.3636 -91.5536 86° East 483 556 35,000  Level Memphis Center
10:28AM 33.3733 -91.3894 83° East 483 556 35,000  Level Memphis Center
10:29AM 33.3892 -91.2281 84° East 483 556 35,000  Level Memphis Center
10:30AM 33.4028 -91.0664 85° East 483 556 35,000  Level Memphis Center
10:31AM 33.4139 -90.9047 84° East 483 556 35,000  Level Memphis Center
10:32AM 33.4269 -90.7431 85° East 483 556 35,000  Level Memphis Center
10:33AM 33.4400 -90.5789 85° East 483 556 35,000  Level Memphis Center
10:34AM 33.4525 -90.4219 85° East 488 562 35,000  Level Memphis Center
10:35AM 33.4650 -90.2625 89° East 483 556 35,000  Level Memphis Center
10:36AM 33.4669 -90.1058 88° East 478 550 35,000  Level Memphis Center
10:37AM 33.4708 -89.9489 89° East 466 536 35,000  Level Memphis Center
10:38AM 33.4722 -89.7969 88° East 461 531 35,000  Level Memphis Center
10:39AM 33.4756 -89.6425 88° East 461 531 35,000  Level Memphis Center
10:40AM 33.4789 -89.4881 90° East 461 531 35,000  Level Memphis Center
10:41AM 33.4797 -89.3336 90° East 461 531 35,000  Level Memphis Center
10:42AM 33.4803 -89.1792 90° East 461 531 35,000  Level Memphis Center
10:43AM 33.4808 -89.0272 89° East 461 531 35,000  Level Memphis Center
10:44AM 33.4833 -88.8728 90° East 461 531 35,000  Level Memphis Center
10:45AM 33.4836 -88.7183 88° East 461 531 35,000  Level Memphis Center
10:46AM 33.4878 -88.5664 86° East 461 531 35,000  Level Memphis Center
10:47AM 33.4958 -88.4117 82° East 461 531 35,000  Level Memphis Center
10:48AM 33.5142 -88.2569 81° East 461 531 35,000  Level Memphis Center
10:50AM 33.5472 -87.9894 82° East 452 520 35,000  Level Atlanta Center
10:51AM 33.5647 -87.8356 82° East 463 533 35,000  Level Atlanta Center
10:52AM 33.5817 -87.6817 82° East 463 533 35,000  Level Atlanta Center
10:53AM 33.5989 -87.5253 82° East 463 533 35,000  Level Atlanta Center
10:54AM 33.6178 -87.3714 84° East 463 533 35,000  Level Atlanta Center
10:55AM 33.6322 -87.2175 82° East 463 533 35,000  Level Atlanta Center
10:56AM 33.6506 -87.0633 82° East 463 533 35,000  Level Atlanta Center
10:57AM 33.6664 -86.9267 88° East 463 533 35,000  Level Atlanta Center
10:58AM 33.6700 -86.7719 91° East 463 533 35,000  Level Atlanta Center
10:59AM 33.6672 -86.6172 90° East 458 527 35,000  Level Atlanta Center
11:00AM 33.6661 -86.4647 91° East 458 527 35,000  Level Atlanta Center
11:01AM 33.6647 -86.3100 91° East 458 527 35,000  Level Atlanta Center
11:02AM 33.6633 -86.1553 91° East 458 527 35,000  Level Atlanta Center
11:03AM 33.6617 -86.0031 92° East 458 527 35,000  Level Atlanta Center
11:04AM 33.6578 -85.8483 90° East 458 527 35,000  Level Atlanta Center
11:05AM 33.6581 -85.6861 91° East 446 513 35,000  Level Atlanta Center
11:06AM 33.6558 -85.5336 93° East 446 513 35,000  Level Atlanta Center
11:07AM 33.6492 -85.3789 91° East 453 521 35,000  Level Atlanta Center
11:08AM 33.6467 -85.2242 91° East 459 528 35,000  Level Atlanta Center
11:09AM 33.6439 -85.0744 91° East 459 528 35,000  Level Atlanta Center
11:10AM 33.6408 -84.9197 92° East 459 528 35,000  Level Atlanta Center
11:11AM 33.6375 -84.7825 91° East 459 528 35,000  Level Atlanta Center
11:12AM 33.6342 -84.6303 94° East 459 528 35,000  Level Atlanta Center
11:13AM 33.6264 -84.4803 85° East 459 528 35,000  Level Atlanta Center
11:14AM 33.6375 -84.3308 89° East 454 522 35,000  Level Atlanta Center
11:15AM 33.6397 -84.1586 87° East 461 531 35,000  Level Atlanta Center
11:16AM 33.6461 -84.0114 87° East 455 524 35,000  Level Atlanta Center
11:17AM 33.6522 -83.8592 86° East 450 518 35,000  Level Atlanta Center
11:18AM 33.6603 -83.7119 88° East 450 518 35,000  Level Atlanta Center
11:19AM 33.6639 -83.5619 92° East 445 512 35,000 -360 Level Atlanta Center
11:20AM 33.6592 -83.4150 92° East 439 505 34,300 -900 Descending Atlanta Center
11:21AM 33.6542 -83.2653 93° East 439 505 33,300 -900 Descending Atlanta Center
11:22AM 33.6489 -83.1331 93° East 439 505 32,500 -960 Descending Atlanta Center
11:23AM 33.6414 -82.9833 92° East 439 505 31,400 -1,080 Descending Atlanta Center
11:24AM 33.6381 -82.8436 94° East 433 498 30,400 -1,200 Descending Atlanta Center
11:26AM 33.6231 -82.5808 93° East 418 481 27,900 -1,200 Descending Jacksonville Center
11:27AM 33.6164 -82.4261 92° East 423 487 27,000 -480 Descending Jacksonville Center
11:28AM 33.6117 -82.2892 93° East 416 479 27,000  Level Jacksonville Center
11:29AM 33.6067 -82.1544 94° East 411 473 27,000  Level Jacksonville Center
11:30AM 33.5997 -82.0197 93° East 406 467 27,000  Level Jacksonville Center
11:31AM 33.5944 -81.8828 99° East 406 467 27,000  Level Jacksonville Center
11:32AM 33.5767 -81.7433 111° Southeast 411 473 27,000 -540 Level Jacksonville Center
11:33AM 33.5336 -81.6117 111° Southeast 411 473 26,000 -1,560 Descending Jacksonville Center
11:34AM 33.4903 -81.4731 110° East 425 489 23,900 -2,280 Descending Jacksonville Center
11:35AM 33.4492 -81.3367 111° Southeast 430 495 21,500 -2,400 Descending Jacksonville Center
11:36AM 33.4056 -81.2031 112° Southeast 430 495 19,200 -2,160 Descending Jacksonville Center
11:37AM 33.3622 -81.0772 111° Southeast 430 495 17,200 -2,160 Descending Jacksonville Center
11:38AM 33.3250 -80.9586 110° East 402 463 14,900 -2,400 Descending Jacksonville Center
11:39AM 33.2897 -80.8450 112° Southeast 386 444 12,500 -2,100 Descending Jacksonville Center
11:40AM 33.2525 -80.7367 111° Southeast 363 418 10,700 -1,260 Descending Jacksonville Center
11:41AM 33.2214 -80.6381 113° Southeast 336 387 10,000 -360 Descending Jacksonville Center
11:42AM 33.1908 -80.5519 120° Southeast 306 352 10,000 -840 Level Jacksonville Center
11:43AM 33.1517 -80.4711 119° Southeast 290 334 8,400 -1,800 Descending Jacksonville Center
11:44AM 33.1147 -80.3928 118° Southeast 271 312 6,500 -1,860 Descending Jacksonville Center
11:45AM 33.0797 -80.3144 121° Southeast 266 306 4,700 -1,740 Descending Jacksonville Center
11:46AM 33.0428 -80.2411 116° Southeast 266 306 3,100 -900 Descending Jacksonville Center
11:47AM 33.0183 -80.1825 118° Southeast 252 290 3,000 -300 Descending Jacksonville Center
11:48AM 32.9922 -80.1236 118° Southeast 220 253 2,600 -420 Descending Jacksonville Center